createdAt,value
2023-02-18T00:01:44.392Z,41.75
2023-02-18T00:04:12.798Z,31.00
2023-02-18T00:06:41.129Z,34.00
2023-02-18T00:09:09.973Z,33.75
2023-02-18T00:11:39.314Z,35.25
2023-02-18T00:14:13.237Z,37.25
2023-02-18T00:16:42.043Z,38.25
2023-02-18T00:19:14.792Z,35.50
2023-02-18T00:21:43.456Z,38.25
2023-02-18T00:24:16.288Z,38.75
2023-02-18T00:26:45.231Z,32.25
2023-02-18T00:29:13.721Z,37.75
2023-02-18T00:31:42.531Z,34.25
2023-02-18T00:34:12.920Z,33.75
2023-02-18T00:36:41.592Z,29.00
2023-02-18T00:39:11.620Z,31.25
2023-02-18T00:41:40.412Z,32.50
2023-02-18T00:44:08.927Z,28.25
2023-02-18T00:46:38.261Z,34.00
2023-02-18T00:49:07.524Z,27.75
2023-02-18T00:51:36.478Z,27.00
2023-02-18T00:54:04.937Z,29.25
2023-02-18T00:56:33.728Z,21.00
2023-02-18T00:59:02.045Z,23.25
2023-02-18T01:01:30.620Z,19.00
2023-02-18T01:03:58.963Z,20.75
2023-02-18T01:06:27.259Z,22.50
2023-02-18T01:08:55.593Z,22.50
2023-02-18T01:11:23.998Z,21.50
2023-02-18T01:13:52.902Z,23.50
2023-02-18T01:16:21.637Z,26.50
2023-02-18T01:18:50.011Z,25.25
2023-02-18T01:21:18.636Z,22.50
2023-02-18T01:23:47.088Z,25.00
2023-02-18T01:26:15.388Z,28.00
2023-02-18T01:28:43.753Z,24.50
2023-02-18T01:31:14.645Z,26.00
2023-02-18T01:33:45.093Z,30.25
2023-02-18T01:36:14.016Z,26.75
2023-02-18T01:38:42.549Z,27.00
2023-02-18T01:41:11.640Z,31.50
2023-02-18T01:43:41.030Z,25.75
2023-02-18T01:46:17.042Z,30.00
2023-02-18T01:48:54.809Z,25.50
2023-02-18T01:51:33.567Z,26.00
2023-02-18T01:54:31.160Z,26.00
2023-02-18T01:57:08.696Z,27.75
2023-02-18T01:59:59.017Z,30.50
2023-02-18T02:02:29.791Z,28.50
2023-02-18T02:04:59.286Z,29.75
2023-02-18T02:07:29.607Z,31.50
2023-02-18T02:10:00.680Z,30.25
2023-02-18T02:12:45.592Z,27.75
2023-02-18T02:15:44.345Z,28.25
2023-02-18T02:18:27.620Z,29.00
2023-02-18T02:20:58.888Z,32.25
2023-02-18T02:23:41.999Z,29.25
2023-02-18T02:26:26.402Z,26.00
2023-02-18T02:29:08.156Z,31.25
2023-02-18T02:32:13.127Z,28.75
2023-02-18T02:35:16.932Z,29.50
2023-02-18T02:37:45.188Z,29.25
2023-02-18T02:40:55.356Z,29.50
2023-02-18T02:44:07.954Z,30.00
2023-02-18T02:46:47.051Z,29.00
2023-02-18T02:49:40.233Z,28.50
2023-02-18T02:52:45.371Z,30.00
2023-02-18T02:55:14.593Z,30.25
2023-02-18T02:57:47.531Z,26.00
2023-02-18T03:00:19.741Z,26.50
2023-02-18T03:03:04.488Z,23.25
2023-02-18T03:05:41.071Z,26.75
2023-02-18T03:08:26.539Z,26.00
2023-02-18T03:11:12.739Z,23.75
2023-02-18T03:14:25.556Z,29.00
2023-02-18T03:17:04.095Z,20.75
2023-02-18T03:19:48.450Z,22.25
2023-02-18T03:22:34.226Z,23.25
2023-02-18T03:25:04.108Z,27.75
2023-02-18T03:27:42.556Z,22.75
2023-02-18T03:30:17.012Z,28.75
2023-02-18T03:32:48.481Z,28.50
2023-02-18T03:35:21.295Z,27.00
2023-02-18T03:37:55.394Z,27.25
2023-02-18T03:40:24.129Z,33.00
2023-02-18T03:42:52.581Z,27.25
2023-02-18T03:45:20.968Z,29.75
2023-02-18T03:47:49.855Z,27.75
2023-02-18T03:50:18.433Z,24.75
2023-02-18T03:52:47.152Z,27.75
2023-02-18T03:55:15.492Z,29.00
2023-02-18T03:57:43.973Z,31.25
2023-02-18T04:00:12.875Z,27.25
2023-02-18T04:02:41.767Z,28.25
2023-02-18T04:05:10.345Z,33.75
2023-02-18T04:07:38.725Z,30.00
2023-02-18T04:10:08.160Z,29.75
2023-02-18T04:12:36.512Z,27.00
2023-02-18T04:15:05.786Z,26.50
2023-02-18T04:17:35.048Z,32.00
2023-02-18T04:20:05.313Z,27.50
2023-02-18T04:22:33.706Z,29.25
2023-02-18T04:25:01.997Z,33.50
2023-02-18T04:27:30.323Z,32.50
2023-02-18T04:29:58.914Z,35.00
2023-02-18T04:32:27.367Z,32.50
2023-02-18T04:34:55.669Z,40.75
2023-02-18T04:37:24.034Z,35.00
2023-02-18T04:39:52.396Z,39.25
2023-02-18T04:42:21.088Z,40.25
2023-02-18T04:44:49.477Z,37.75
2023-02-18T04:47:17.766Z,37.50
2023-02-18T04:49:46.105Z,32.00
2023-02-18T04:52:14.465Z,33.00
2023-02-18T04:54:42.924Z,32.00
2023-02-18T04:57:11.302Z,32.25
2023-02-18T04:59:40.225Z,35.50
2023-02-18T05:02:08.582Z,31.50
2023-02-18T05:04:36.996Z,34.50
2023-02-18T05:07:05.399Z,37.25
2023-02-18T05:09:33.761Z,29.75
2023-02-18T05:12:02.057Z,34.00
2023-02-18T05:14:30.376Z,34.25
2023-02-18T05:16:58.733Z,30.50
2023-02-18T05:19:27.064Z,33.25
2023-02-18T05:21:55.369Z,32.00
2023-02-18T05:24:24.120Z,35.00
2023-02-18T05:26:52.498Z,41.00
2023-02-18T05:29:20.773Z,37.75
2023-02-18T05:31:49.313Z,33.00
2023-02-18T05:34:17.722Z,34.00
2023-02-18T05:36:46.083Z,41.25
2023-02-18T05:39:14.483Z,38.25
2023-02-18T05:41:42.851Z,44.25
2023-02-18T05:44:29.325Z,34.75
2023-02-18T05:47:10.350Z,40.00
2023-02-18T05:49:41.525Z,38.00
2023-02-18T05:52:11.838Z,40.00
2023-02-18T05:54:40.881Z,32.00
2023-02-18T05:57:09.727Z,38.00
2023-02-18T05:59:38.030Z,40.50
2023-02-18T06:02:06.384Z,42.00
2023-02-18T06:04:34.867Z,35.50
2023-02-18T06:07:03.159Z,33.75
2023-02-18T06:09:31.486Z,36.75
2023-02-18T06:11:59.800Z,37.25
2023-02-18T06:14:28.139Z,35.25
2023-02-18T06:16:56.489Z,35.00
2023-02-18T06:19:24.883Z,28.75
2023-02-18T06:21:53.208Z,29.50
2023-02-18T06:24:21.531Z,34.00
2023-02-18T06:26:49.816Z,30.75
2023-02-18T06:29:18.131Z,30.25
2023-02-18T06:31:46.599Z,26.50
2023-02-18T06:34:15.393Z,28.50
2023-02-18T06:36:43.716Z,26.50
2023-02-18T06:39:12.053Z,26.25
2023-02-18T06:41:41.484Z,25.75
2023-02-18T06:44:09.878Z,34.50
2023-02-18T06:46:38.364Z,25.00
2023-02-18T06:49:06.696Z,29.75
2023-02-18T06:51:35.018Z,25.75
2023-02-18T06:54:03.365Z,27.50
2023-02-18T06:56:31.635Z,30.50
2023-02-18T06:58:59.909Z,28.50
2023-02-18T07:01:28.193Z,25.50
2023-02-18T07:03:57.225Z,22.75
2023-02-18T07:06:25.606Z,32.75
2023-02-18T07:08:53.912Z,26.50
2023-02-18T07:11:22.217Z,29.50
2023-02-18T07:13:50.549Z,30.25
2023-02-18T07:16:18.857Z,26.25
2023-02-18T07:18:47.653Z,25.50
2023-02-18T07:21:15.936Z,24.25
2023-02-18T07:23:44.232Z,31.25
2023-02-18T07:26:14.600Z,24.75
2023-02-18T07:28:43.355Z,29.00
2023-02-18T07:31:11.747Z,28.00
2023-02-18T07:33:40.113Z,25.25
2023-02-18T07:36:09.471Z,26.00
2023-02-18T07:38:38.041Z,28.00
2023-02-18T07:41:06.586Z,25.75
2023-02-18T07:43:34.889Z,29.25
2023-02-18T07:46:08.104Z,28.50
2023-02-18T07:48:37.636Z,25.75
2023-02-18T07:51:11.693Z,24.25
2023-02-18T07:53:40.983Z,25.50
2023-02-18T07:56:10.070Z,24.50
2023-02-18T07:58:40.747Z,26.75
2023-02-18T08:01:11.982Z,31.25
2023-02-18T08:03:40.327Z,25.25
2023-02-18T08:06:09.969Z,24.75
2023-02-18T08:08:38.532Z,29.00
2023-02-18T08:11:19.024Z,25.00
2023-02-18T08:13:49.520Z,22.75
2023-02-18T08:16:22.830Z,24.00
2023-02-18T08:18:52.572Z,25.25
2023-02-18T08:21:23.385Z,21.25
2023-02-18T08:23:51.732Z,25.00
2023-02-18T08:26:21.660Z,23.25
2023-02-18T08:28:50.360Z,23.50
2023-02-18T08:31:26.076Z,29.25
2023-02-18T08:33:59.918Z,26.00
2023-02-18T08:36:29.530Z,23.00
2023-02-18T08:38:58.757Z,21.50
2023-02-18T08:41:27.057Z,21.25
2023-02-18T08:43:55.576Z,23.75
2023-02-18T08:46:27.216Z,26.25
2023-02-18T08:49:03.928Z,25.00
2023-02-18T08:51:32.553Z,26.75
2023-02-18T08:54:00.949Z,21.50
2023-02-18T08:56:29.335Z,19.75
2023-02-18T08:58:57.645Z,25.00
2023-02-18T09:01:26.024Z,25.25
2023-02-18T09:03:54.390Z,25.00
2023-02-18T09:06:22.812Z,23.75
2023-02-18T09:08:51.183Z,25.25
2023-02-18T09:11:21.123Z,22.50
2023-02-18T09:13:49.541Z,23.50
2023-02-18T09:16:20.083Z,23.50
2023-02-18T09:18:49.813Z,20.75
2023-02-18T09:21:21.515Z,26.50
2023-02-18T09:23:50.575Z,24.25
2023-02-18T09:26:25.885Z,26.00
2023-02-18T09:28:56.428Z,21.50
2023-02-18T09:31:27.568Z,22.75
2023-02-18T09:33:59.652Z,24.75
2023-02-18T09:36:28.976Z,24.75
2023-02-18T09:38:57.818Z,28.00
2023-02-18T09:41:47.152Z,26.75
2023-02-18T09:44:30.319Z,23.50
2023-02-18T09:47:19.659Z,23.25
2023-02-18T09:50:01.309Z,26.00
2023-02-18T09:52:36.960Z,20.75
2023-02-18T09:55:28.584Z,20.75
2023-02-18T09:58:09.589Z,24.00
2023-02-18T10:00:49.396Z,23.00
2023-02-18T10:03:19.193Z,23.75
2023-02-18T10:05:58.296Z,24.00
2023-02-18T10:08:33.417Z,24.75
2023-02-18T10:11:01.808Z,24.00
2023-02-18T10:13:33.128Z,26.25
2023-02-18T10:16:02.106Z,20.75
2023-02-18T10:18:34.926Z,25.75
2023-02-18T10:21:11.289Z,26.25
2023-02-18T10:23:43.262Z,24.75
2023-02-18T10:26:19.383Z,23.00
2023-02-18T10:28:48.745Z,26.50
2023-02-18T10:31:27.190Z,23.00
2023-02-18T10:34:09.938Z,25.00
2023-02-18T10:36:56.406Z,27.75
2023-02-18T10:39:44.743Z,25.75
2023-02-18T10:42:40.066Z,25.25
2023-02-18T10:45:32.687Z,21.75
2023-02-18T10:48:13.015Z,22.50
2023-02-18T10:50:46.672Z,26.00
2023-02-18T10:53:37.864Z,20.25
2023-02-18T10:56:09.650Z,22.50
2023-02-18T10:58:44.600Z,26.00
2023-02-18T11:01:20.259Z,28.00
2023-02-18T11:03:53.749Z,28.75
2023-02-18T11:06:35.496Z,29.50
2023-02-18T11:09:04.000Z,28.50
2023-02-18T11:11:45.661Z,29.00
2023-02-18T11:14:37.373Z,28.75
2023-02-18T11:17:20.461Z,30.00
2023-02-18T11:20:00.290Z,27.25
2023-02-18T11:22:35.924Z,29.25
2023-02-18T11:25:34.123Z,27.50
2023-02-18T11:28:06.707Z,29.00
2023-02-18T11:30:40.500Z,28.25
2023-02-18T11:33:17.595Z,29.50
2023-02-18T11:35:55.045Z,35.50
2023-02-18T11:38:46.536Z,30.75
2023-02-18T11:41:31.046Z,37.50
2023-02-18T11:44:00.430Z,32.75
2023-02-18T11:46:29.352Z,28.75
2023-02-18T11:48:57.964Z,31.00
2023-02-18T11:51:37.593Z,31.25
2023-02-18T11:54:07.537Z,31.00
2023-02-18T11:56:37.962Z,30.25
2023-02-18T11:59:08.036Z,30.25
2023-02-18T12:01:47.885Z,33.75
2023-02-18T12:04:19.698Z,32.75
2023-02-18T12:07:07.660Z,34.00
2023-02-18T12:09:54.150Z,32.25
2023-02-18T12:12:52.984Z,36.25
2023-02-18T12:15:33.414Z,33.75
2023-02-18T12:18:22.799Z,35.00
2023-02-18T12:21:06.569Z,38.50
2023-02-18T12:23:45.743Z,37.50
2023-02-18T12:26:21.336Z,36.50
2023-02-18T12:29:14.428Z,34.00
2023-02-18T12:32:05.933Z,37.25
2023-02-18T12:34:46.167Z,34.00
2023-02-18T12:37:35.451Z,35.25
2023-02-18T12:40:29.061Z,42.50
2023-02-18T12:43:15.786Z,40.25
2023-02-18T12:46:20.099Z,41.00
2023-02-18T12:49:20.216Z,36.75
2023-02-18T12:52:12.579Z,35.00
2023-02-18T12:55:21.942Z,38.25
2023-02-18T12:58:18.631Z,38.00
2023-02-18T13:01:21.447Z,35.75
2023-02-18T13:04:18.639Z,34.00
2023-02-18T13:07:41.102Z,37.75
2023-02-18T13:10:42.737Z,40.00
2023-02-18T13:13:13.863Z,36.25
2023-02-18T13:15:48.984Z,35.00
2023-02-18T13:18:30.294Z,40.75
2023-02-18T13:21:14.936Z,40.00
2023-02-18T13:23:52.626Z,39.75
2023-02-18T13:26:23.347Z,36.25
2023-02-18T13:29:09.313Z,43.50
2023-02-18T13:32:01.410Z,38.50
2023-02-18T13:34:53.769Z,42.25
2023-02-18T13:37:40.581Z,42.00
2023-02-18T13:40:20.046Z,39.25
2023-02-18T13:42:52.172Z,40.50
2023-02-18T13:45:32.359Z,46.00
2023-02-18T13:48:01.931Z,45.50
2023-02-18T13:50:41.467Z,45.75
2023-02-18T13:53:09.743Z,44.00
2023-02-18T13:55:59.605Z,47.25
2023-02-18T13:59:02.181Z,46.00
2023-02-18T14:01:44.356Z,44.25
2023-02-18T14:04:43.787Z,44.75
2023-02-18T14:07:36.899Z,46.25
2023-02-18T14:10:25.663Z,44.75
2023-02-18T14:13:00.115Z,45.75
2023-02-18T14:15:28.580Z,42.75
2023-02-18T14:18:15.283Z,43.75
2023-02-18T14:20:52.792Z,45.75
2023-02-18T14:23:23.895Z,46.50
2023-02-18T14:26:13.680Z,41.50
2023-02-18T14:28:42.111Z,42.75
2023-02-18T14:31:13.794Z,43.25
2023-02-18T14:33:44.277Z,44.50
2023-02-18T14:36:26.543Z,43.75
2023-02-18T14:39:28.718Z,42.75
2023-02-18T14:42:12.590Z,45.00
2023-02-18T14:44:43.750Z,45.00
2023-02-18T14:47:36.191Z,43.25
2023-02-18T14:50:11.750Z,47.00
2023-02-18T14:52:49.074Z,43.25
2023-02-18T14:55:23.964Z,46.00
2023-02-18T14:58:24.313Z,43.00
2023-02-18T15:00:52.671Z,45.50
2023-02-18T15:03:23.298Z,42.00
2023-02-18T15:05:52.613Z,45.25
2023-02-18T15:08:25.772Z,44.50
2023-02-18T15:11:07.605Z,46.00
2023-02-18T15:13:44.791Z,41.75
2023-02-18T15:16:40.561Z,48.00
2023-02-18T15:19:17.818Z,44.50
2023-02-18T15:21:48.972Z,43.50
2023-02-18T15:24:26.872Z,44.50
2023-02-18T15:27:03.030Z,46.25
2023-02-18T15:29:40.353Z,48.75
2023-02-18T15:32:18.398Z,46.75
2023-02-18T15:34:47.567Z,47.75
2023-02-18T15:37:16.739Z,47.75
2023-02-18T15:39:46.766Z,51.25
2023-02-18T15:42:32.322Z,51.00
2023-02-18T15:45:20.975Z,45.75
2023-02-18T15:47:55.594Z,44.00
2023-02-18T15:50:34.216Z,46.50
2023-02-18T15:53:09.828Z,50.25
2023-02-18T15:55:40.976Z,45.00
2023-02-18T15:58:19.126Z,49.00
2023-02-18T16:00:53.617Z,47.25
2023-02-18T16:03:48.519Z,45.25
2023-02-18T16:06:36.872Z,47.00
2023-02-18T16:09:10.974Z,45.50
2023-02-18T16:11:46.618Z,46.50
2023-02-18T16:14:56.086Z,47.25
2023-02-18T16:17:27.707Z,49.25
2023-02-18T16:20:04.311Z,51.00
2023-02-18T16:22:34.469Z,49.00
2023-02-18T16:25:14.381Z,49.25
2023-02-18T16:28:31.938Z,48.75
2023-02-18T16:31:00.239Z,48.00
2023-02-18T16:33:28.557Z,53.50
2023-02-18T16:35:58.667Z,53.25
2023-02-18T16:38:27.145Z,49.00
2023-02-18T16:40:56.397Z,47.50
2023-02-18T16:43:28.360Z,50.25
2023-02-18T16:46:08.796Z,49.25
2023-02-18T16:48:42.493Z,53.75
2023-02-18T16:51:42.431Z,54.75
2023-02-18T16:54:13.919Z,54.75
2023-02-18T16:56:42.276Z,59.00
2023-02-18T16:59:10.930Z,57.25
2023-02-18T17:01:45.569Z,61.75
2023-02-18T17:04:16.941Z,57.00
2023-02-18T17:06:49.456Z,57.25
2023-02-18T17:09:23.804Z,56.50
2023-02-18T17:11:55.379Z,56.00
2023-02-18T17:14:24.510Z,60.00
2023-02-18T17:16:55.723Z,59.00
2023-02-18T17:19:24.402Z,55.50
2023-02-18T17:21:52.700Z,55.50
2023-02-18T17:24:21.404Z,54.75
2023-02-18T17:26:49.719Z,55.50
2023-02-18T17:29:18.162Z,55.00
2023-02-18T17:31:48.610Z,53.75
2023-02-18T17:34:28.675Z,57.75
2023-02-18T17:36:56.979Z,60.50
2023-02-18T17:39:25.579Z,54.50
2023-02-18T17:41:53.944Z,54.00
2023-02-18T17:44:24.527Z,53.75
2023-02-18T17:46:53.729Z,56.00
2023-02-18T17:49:23.399Z,54.25
2023-02-18T17:51:53.017Z,55.50
2023-02-18T17:54:23.918Z,53.25
2023-02-18T17:56:52.298Z,49.75
2023-02-18T17:59:20.618Z,55.25
2023-02-18T18:01:49.208Z,52.75
2023-02-18T18:04:20.224Z,52.25
2023-02-18T18:06:48.650Z,54.25
2023-02-18T18:09:16.954Z,56.00
2023-02-18T18:11:45.383Z,54.00
2023-02-18T18:14:16.142Z,53.25
2023-02-18T18:16:44.470Z,51.75
2023-02-18T18:19:12.859Z,51.00
2023-02-18T18:21:41.893Z,51.50
2023-02-18T18:24:13.948Z,55.50
2023-02-18T18:26:42.308Z,50.50
2023-02-18T18:29:10.609Z,54.25
2023-02-18T18:31:39.310Z,52.25
2023-02-18T18:34:07.731Z,52.00
2023-02-18T18:36:36.059Z,52.75
2023-02-18T18:39:04.486Z,56.25
2023-02-18T18:41:32.790Z,55.25
2023-02-18T18:44:01.092Z,54.75
2023-02-18T18:46:29.434Z,52.25
2023-02-18T18:48:59.921Z,56.50
2023-02-18T18:51:32.146Z,50.75
2023-02-18T18:54:00.507Z,54.00
2023-02-18T18:56:28.927Z,51.00
2023-02-18T18:58:57.488Z,54.25
2023-02-18T19:01:28.246Z,53.25
2023-02-18T19:03:56.745Z,55.00
2023-02-18T19:06:25.091Z,54.50
2023-02-18T19:08:53.439Z,49.75
2023-02-18T19:11:21.876Z,52.00
2023-02-18T19:13:50.186Z,50.00
2023-02-18T19:16:40.427Z,51.00
2023-02-18T19:19:10.077Z,52.50
2023-02-18T19:21:38.467Z,52.25
2023-02-18T19:24:06.985Z,49.25
2023-02-18T19:26:35.425Z,46.00
2023-02-18T19:29:04.024Z,49.00
2023-02-18T19:31:32.656Z,51.50
2023-02-18T19:34:01.041Z,49.25
2023-02-18T19:36:29.435Z,46.50
2023-02-18T19:38:58.617Z,48.00
2023-02-18T19:41:26.970Z,51.00
2023-02-18T19:43:55.807Z,46.00
2023-02-18T19:46:24.144Z,50.25
2023-02-18T19:48:53.648Z,48.00
2023-02-18T19:51:22.693Z,46.75
2023-02-18T19:53:51.038Z,48.75
2023-02-18T19:56:19.749Z,45.50
2023-02-18T19:58:48.145Z,45.75
2023-02-18T20:01:18.360Z,47.75
2023-02-18T20:03:48.172Z,49.75
2023-02-18T20:06:21.303Z,44.00
2023-02-18T20:08:49.988Z,45.50
2023-02-18T20:11:18.597Z,49.00
2023-02-18T20:13:49.214Z,48.75
2023-02-18T20:16:17.666Z,51.75
2023-02-18T20:18:45.992Z,50.75
2023-02-18T20:21:14.659Z,49.25
2023-02-18T20:23:42.991Z,50.00
2023-02-18T20:26:13.019Z,55.25
2023-02-18T20:28:41.436Z,55.00
2023-02-18T20:31:12.498Z,53.00
2023-02-18T20:33:43.262Z,50.25
2023-02-18T20:36:13.838Z,56.25
2023-02-18T20:38:42.305Z,51.00
2023-02-18T20:41:15.711Z,52.50
2023-02-18T20:43:44.443Z,53.00
2023-02-18T20:46:15.340Z,55.00
2023-02-18T20:48:44.710Z,52.00
2023-02-18T20:51:16.554Z,57.25
2023-02-18T20:53:46.200Z,51.00
2023-02-18T20:56:15.627Z,53.00
2023-02-18T20:58:44.034Z,55.75
2023-02-18T21:01:15.047Z,52.00
2023-02-18T21:03:44.221Z,53.00
2023-02-18T21:06:16.153Z,52.50
2023-02-18T21:08:46.526Z,54.00
2023-02-18T21:11:20.601Z,54.75
2023-02-18T21:13:50.487Z,57.25
2023-02-18T21:16:20.075Z,54.50
2023-02-18T21:18:48.791Z,58.25
2023-02-18T21:21:18.200Z,52.25
2023-02-18T21:23:46.536Z,54.00
2023-02-18T21:26:17.498Z,50.75
2023-02-18T21:28:50.548Z,54.50
2023-02-18T21:31:22.604Z,54.25
2023-02-18T21:33:51.721Z,51.25
2023-02-18T21:36:20.463Z,54.50
2023-02-18T21:39:00.120Z,54.75
2023-02-18T21:41:30.529Z,52.75
2023-02-18T21:43:59.109Z,50.75
2023-02-18T21:46:32.879Z,53.50
2023-02-18T21:49:06.729Z,56.50
2023-02-18T21:52:01.421Z,53.25
2023-02-18T21:54:40.126Z,55.00
2023-02-18T21:57:14.113Z,56.25
2023-02-18T21:59:43.079Z,55.50
2023-02-18T22:02:18.142Z,56.50
2023-02-18T22:04:47.363Z,51.00
2023-02-18T22:07:16.232Z,53.00
2023-02-18T22:09:47.292Z,56.25
2023-02-18T22:12:16.920Z,50.00
2023-02-18T22:14:45.457Z,57.00
2023-02-18T22:17:14.643Z,52.75
2023-02-18T22:19:43.797Z,54.00
2023-02-18T22:22:12.338Z,52.00
2023-02-18T22:24:40.686Z,54.50
2023-02-18T22:27:09.010Z,52.25
2023-02-18T22:29:37.346Z,56.25
2023-02-18T22:32:05.965Z,50.00
2023-02-18T22:34:34.512Z,55.75
2023-02-18T22:37:02.830Z,50.50
2023-02-18T22:39:31.241Z,51.75
2023-02-18T22:41:59.648Z,53.00
2023-02-18T22:44:28.353Z,54.25
2023-02-18T22:46:58.518Z,53.75
2023-02-18T22:49:27.178Z,56.00
2023-02-18T22:51:56.353Z,51.75
2023-02-18T22:54:24.781Z,50.50
2023-02-18T22:56:55.361Z,51.00
2023-02-18T22:59:23.744Z,54.75
2023-02-18T23:01:53.778Z,54.75
2023-02-18T23:04:23.255Z,51.75
2023-02-18T23:06:52.425Z,47.75
2023-02-18T23:09:24.658Z,51.75
2023-02-18T23:11:55.622Z,54.50
2023-02-18T23:14:24.581Z,53.00
2023-02-18T23:17:15.763Z,53.50
2023-02-18T23:19:54.893Z,52.50
2023-02-18T23:22:34.452Z,48.75
2023-02-18T23:25:03.683Z,54.75
2023-02-18T23:27:32.622Z,49.75
2023-02-18T23:30:01.033Z,54.50
2023-02-18T23:32:31.556Z,53.50
2023-02-18T23:34:59.858Z,54.00
2023-02-18T23:37:46.441Z,50.75
2023-02-18T23:40:15.681Z,53.25
2023-02-18T23:42:44.074Z,49.00
2023-02-18T23:45:12.440Z,51.25
2023-02-18T23:47:40.834Z,52.25
2023-02-18T23:50:09.414Z,53.00
2023-02-18T23:52:38.264Z,52.00
2023-02-18T23:55:06.984Z,54.25
2023-02-18T23:57:35.335Z,50.50
